sensor_id;sensor_type;location;lat;lon;timestamp;temperature;humidity
25024;DHT22;13033;50.936;5.334;2023-12-29T00:02:01;11.40;99.90
25024;DHT22;13033;50.936;5.334;2023-12-29T00:04:29;11.20;99.90
25024;DHT22;13033;50.936;5.334;2023-12-29T00:06:56;11.20;99.90
25024;DHT22;13033;50.936;5.334;2023-12-29T00:09:23;11.10;99.90
25024;DHT22;13033;50.936;5.334;2023-12-29T00:11:51;11.20;99.90
25024;DHT22;13033;50.936;5.334;2023-12-29T00:14:17;11.20;99.90
25024;DHT22;13033;50.936;5.334;2023-12-29T00:16:44;11.20;99.90
25024;DHT22;13033;50.936;5.334;2023-12-29T00:19:12;11.20;99.90
25024;DHT22;13033;50.936;5.334;2023-12-29T00:21:37;11.20;99.90
25024;DHT22;13033;50.936;5.334;2023-12-29T00:24:05;11.20;99.90
25024;DHT22;13033;50.936;5.334;2023-12-29T00:26:31;11.20;99.90
25024;DHT22;13033;50.936;5.334;2023-12-29T00:29:03;11.30;99.90
25024;DHT22;13033;50.936;5.334;2023-12-29T00:31:33;11.30;99.90
25024;DHT22;13033;50.936;5.334;2023-12-29T00:33:59;11.30;99.90
25024;DHT22;13033;50.936;5.334;2023-12-29T00:36:24;11.30;99.90
25024;DHT22;13033;50.936;5.334;2023-12-29T00:38:50;11.20;99.90
25024;DHT22;13033;50.936;5.334;2023-12-29T00:41:16;11.30;99.90
25024;DHT22;13033;50.936;5.334;2023-12-29T00:43:42;11.20;99.90
25024;DHT22;13033;50.936;5.334;2023-12-29T00:46:10;11.30;99.90
25024;DHT22;13033;50.936;5.334;2023-12-29T00:48:35;11.10;99.90
25024;DHT22;13033;50.936;5.334;2023-12-29T00:51:01;11.30;99.90
25024;DHT22;13033;50.936;5.334;2023-12-29T00:53:28;11.20;99.90
25024;DHT22;13033;50.936;5.334;2023-12-29T00:55:54;11.20;99.90
25024;DHT22;13033;50.936;5.334;2023-12-29T00:58:22;11.20;99.90
25024;DHT22;13033;50.936;5.334;2023-12-29T01:00:47;11.10;99.90
25024;DHT22;13033;50.936;5.334;2023-12-29T01:03:13;11.20;99.90
25024;DHT22;13033;50.936;5.334;2023-12-29T01:05:39;11.10;99.90
25024;DHT22;13033;50.936;5.334;2023-12-29T01:08:05;11.10;99.90
25024;DHT22;13033;50.936;5.334;2023-12-29T01:10:30;11.10;99.90
25024;DHT22;13033;50.936;5.334;2023-12-29T01:12:56;11.10;99.90
25024;DHT22;13033;50.936;5.334;2023-12-29T01:15:24;11.10;99.90
25024;DHT22;13033;50.936;5.334;2023-12-29T01:17:49;11.20;99.90
25024;DHT22;13033;50.936;5.334;2023-12-29T01:20:15;11.20;99.90
25024;DHT22;13033;50.936;5.334;2023-12-29T01:22:41;11.20;99.90
25024;DHT22;13033;50.936;5.334;2023-12-29T01:25:08;11.20;99.90
25024;DHT22;13033;50.936;5.334;2023-12-29T01:27:34;11.20;99.90
25024;DHT22;13033;50.936;5.334;2023-12-29T01:29:59;11.20;99.90
25024;DHT22;13033;50.936;5.334;2023-12-29T01:32:25;11.20;99.90
25024;DHT22;13033;50.936;5.334;2023-12-29T01:34:52;11.30;99.90
25024;DHT22;13033;50.936;5.334;2023-12-29T01:37:18;11.20;99.90
25024;DHT22;13033;50.936;5.334;2023-12-29T01:39:44;11.20;99.90
25024;DHT22;13033;50.936;5.334;2023-12-29T01:42:10;11.20;99.90
25024;DHT22;13033;50.936;5.334;2023-12-29T01:44:38;11.20;99.90
25024;DHT22;13033;50.936;5.334;2023-12-29T01:47:13;11.20;99.90
25024;DHT22;13033;50.936;5.334;2023-12-29T01:49:41;11.20;99.90
25024;DHT22;13033;50.936;5.334;2023-12-29T01:52:07;11.10;99.90
25024;DHT22;13033;50.936;5.334;2023-12-29T01:54:35;11.10;99.90
25024;DHT22;13033;50.936;5.334;2023-12-29T01:57:04;11.20;99.90
25024;DHT22;13033;50.936;5.334;2023-12-29T01:59:30;11.20;99.90
25024;DHT22;13033;50.936;5.334;2023-12-29T02:01:57;11.10;99.90
25024;DHT22;13033;50.936;5.334;2023-12-29T02:04:28;11.10;99.90
25024;DHT22;13033;50.936;5.334;2023-12-29T02:06:57;11.10;99.90
25024;DHT22;13033;50.936;5.334;2023-12-29T02:09:23;11.10;99.90
25024;DHT22;13033;50.936;5.334;2023-12-29T02:11:50;11.10;99.90
25024;DHT22;13033;50.936;5.334;2023-12-29T02:14:16;11.10;99.90
25024;DHT22;13033;50.936;5.334;2023-12-29T02:19:47;11.00;99.90
25024;DHT22;13033;50.936;5.334;2023-12-29T02:22:16;11.10;99.90
25024;DHT22;13033;50.936;5.334;2023-12-29T02:24:48;11.00;99.90
25024;DHT22;13033;50.936;5.334;2023-12-29T02:27:46;11.10;99.90
25024;DHT22;13033;50.936;5.334;2023-12-29T02:32:59;11.10;99.90
25024;DHT22;13033;50.936;5.334;2023-12-29T02:35:33;11.00;99.90
25024;DHT22;13033;50.936;5.334;2023-12-29T02:38:00;11.00;99.90
25024;DHT22;13033;50.936;5.334;2023-12-29T02:40:27;11.10;99.90
25024;DHT22;13033;50.936;5.334;2023-12-29T02:42:53;11.10;99.90
25024;DHT22;13033;50.936;5.334;2023-12-29T02:45:19;11.10;99.90
25024;DHT22;13033;50.936;5.334;2023-12-29T02:47:45;11.10;99.90
25024;DHT22;13033;50.936;5.334;2023-12-29T02:50:11;11.20;99.90
25024;DHT22;13033;50.936;5.334;2023-12-29T02:52:37;11.20;99.90
25024;DHT22;13033;50.936;5.334;2023-12-29T02:55:03;11.10;99.90
25024;DHT22;13033;50.936;5.334;2023-12-29T02:57:29;11.10;99.90
25024;DHT22;13033;50.936;5.334;2023-12-29T02:59:56;11.00;99.90
25024;DHT22;13033;50.936;5.334;2023-12-29T03:02:22;11.10;99.90
25024;DHT22;13033;50.936;5.334;2023-12-29T03:04:48;11.10;99.90
25024;DHT22;13033;50.936;5.334;2023-12-29T03:07:14;11.10;99.90
25024;DHT22;13033;50.936;5.334;2023-12-29T03:09:40;11.20;99.90
25024;DHT22;13033;50.936;5.334;2023-12-29T03:12:07;11.20;99.90
25024;DHT22;13033;50.936;5.334;2023-12-29T03:14:32;11.20;99.90
25024;DHT22;13033;50.936;5.334;2023-12-29T03:16:58;11.20;99.90
25024;DHT22;13033;50.936;5.334;2023-12-29T03:19:24;11.20;99.90
25024;DHT22;13033;50.936;5.334;2023-12-29T03:21:50;11.30;99.90
25024;DHT22;13033;50.936;5.334;2023-12-29T03:24:16;11.40;99.90
25024;DHT22;13033;50.936;5.334;2023-12-29T03:26:42;11.30;99.90
25024;DHT22;13033;50.936;5.334;2023-12-29T03:29:08;11.30;99.90
25024;DHT22;13033;50.936;5.334;2023-12-29T03:31:34;11.30;99.90
25024;DHT22;13033;50.936;5.334;2023-12-29T03:33:59;11.20;99.90
25024;DHT22;13033;50.936;5.334;2023-12-29T03:36:25;11.30;99.90
25024;DHT22;13033;50.936;5.334;2023-12-29T03:38:51;11.30;99.90
25024;DHT22;13033;50.936;5.334;2023-12-29T03:41:17;11.30;99.90
25024;DHT22;13033;50.936;5.334;2023-12-29T03:43:44;11.20;99.90
25024;DHT22;13033;50.936;5.334;2023-12-29T03:46:20;11.20;99.90
25024;DHT22;13033;50.936;5.334;2023-12-29T03:48:47;11.20;99.90
25024;DHT22;13033;50.936;5.334;2023-12-29T03:51:13;11.20;99.90
25024;DHT22;13033;50.936;5.334;2023-12-29T03:53:40;11.20;99.90
25024;DHT22;13033;50.936;5.334;2023-12-29T03:56:16;11.10;99.90
25024;DHT22;13033;50.936;5.334;2023-12-29T03:58:46;11.20;99.90
25024;DHT22;13033;50.936;5.334;2023-12-29T04:01:16;11.20;99.90
25024;DHT22;13033;50.936;5.334;2023-12-29T04:03:42;11.00;99.90
25024;DHT22;13033;50.936;5.334;2023-12-29T04:06:09;11.10;99.90
25024;DHT22;13033;50.936;5.334;2023-12-29T04:08:36;11.00;99.90
25024;DHT22;13033;50.936;5.334;2023-12-29T04:11:03;10.90;99.90
25024;DHT22;13033;50.936;5.334;2023-12-29T04:13:30;11.00;99.90
25024;DHT22;13033;50.936;5.334;2023-12-29T04:15:56;11.00;99.90
25024;DHT22;13033;50.936;5.334;2023-12-29T04:18:23;11.00;99.90
25024;DHT22;13033;50.936;5.334;2023-12-29T04:20:51;11.00;99.90
25024;DHT22;13033;50.936;5.334;2023-12-29T04:23:18;11.00;99.90
25024;DHT22;13033;50.936;5.334;2023-12-29T04:25:45;11.00;99.90
25024;DHT22;13033;50.936;5.334;2023-12-29T04:28:11;11.00;99.90
25024;DHT22;13033;50.936;5.334;2023-12-29T04:30:37;11.00;99.90
25024;DHT22;13033;50.936;5.334;2023-12-29T04:33:04;11.10;99.90
25024;DHT22;13033;50.936;5.334;2023-12-29T04:35:31;11.00;99.90
25024;DHT22;13033;50.936;5.334;2023-12-29T04:37:56;11.00;99.90
25024;DHT22;13033;50.936;5.334;2023-12-29T04:40:22;10.90;99.90
25024;DHT22;13033;50.936;5.334;2023-12-29T04:42:48;10.90;99.90
25024;DHT22;13033;50.936;5.334;2023-12-29T04:45:14;10.90;99.90
25024;DHT22;13033;50.936;5.334;2023-12-29T04:47:41;10.90;99.90
25024;DHT22;13033;50.936;5.334;2023-12-29T04:50:08;10.90;99.90
25024;DHT22;13033;50.936;5.334;2023-12-29T04:52:35;10.90;99.90
25024;DHT22;13033;50.936;5.334;2023-12-29T04:55:00;11.00;99.90
25024;DHT22;13033;50.936;5.334;2023-12-29T04:57:26;10.90;99.90
25024;DHT22;13033;50.936;5.334;2023-12-29T04:59:52;10.90;99.90
25024;DHT22;13033;50.936;5.334;2023-12-29T05:02:19;10.90;99.90
25024;DHT22;13033;50.936;5.334;2023-12-29T05:04:45;11.00;99.90
25024;DHT22;13033;50.936;5.334;2023-12-29T05:07:12;10.90;99.90
25024;DHT22;13033;50.936;5.334;2023-12-29T05:09:37;10.80;99.90
25024;DHT22;13033;50.936;5.334;2023-12-29T05:12:03;10.80;99.90
25024;DHT22;13033;50.936;5.334;2023-12-29T05:14:29;10.80;99.90
25024;DHT22;13033;50.936;5.334;2023-12-29T05:16:55;10.90;99.90
25024;DHT22;13033;50.936;5.334;2023-12-29T05:19:21;10.90;99.90
25024;DHT22;13033;50.936;5.334;2023-12-29T05:21:48;10.90;99.90
25024;DHT22;13033;50.936;5.334;2023-12-29T05:24:16;10.80;99.90
25024;DHT22;13033;50.936;5.334;2023-12-29T05:26:42;10.80;99.90
25024;DHT22;13033;50.936;5.334;2023-12-29T05:29:07;10.80;99.90
25024;DHT22;13033;50.936;5.334;2023-12-29T05:31:33;10.80;99.90
25024;DHT22;13033;50.936;5.334;2023-12-29T05:34:05;10.90;99.90
25024;DHT22;13033;50.936;5.334;2023-12-29T05:36:35;10.80;99.90
25024;DHT22;13033;50.936;5.334;2023-12-29T05:39:01;10.80;99.90
25024;DHT22;13033;50.936;5.334;2023-12-29T05:41:27;10.80;99.90
25024;DHT22;13033;50.936;5.334;2023-12-29T05:43:54;10.90;99.90
25024;DHT22;13033;50.936;5.334;2023-12-29T05:46:22;10.90;99.90
25024;DHT22;13033;50.936;5.334;2023-12-29T05:48:48;10.90;99.90
25024;DHT22;13033;50.936;5.334;2023-12-29T05:51:14;11.00;99.90
25024;DHT22;13033;50.936;5.334;2023-12-29T05:53:41;11.00;99.90
25024;DHT22;13033;50.936;5.334;2023-12-29T05:56:07;11.00;99.90
25024;DHT22;13033;50.936;5.334;2023-12-29T05:58:33;11.10;99.90
25024;DHT22;13033;50.936;5.334;2023-12-29T06:00:58;11.20;99.90
25024;DHT22;13033;50.936;5.334;2023-12-29T06:03:26;11.20;99.90
25024;DHT22;13033;50.936;5.334;2023-12-29T06:05:51;11.20;99.90
25024;DHT22;13033;50.936;5.334;2023-12-29T06:08:17;11.10;99.90
25024;DHT22;13033;50.936;5.334;2023-12-29T06:10:43;11.10;99.90
25024;DHT22;13033;50.936;5.334;2023-12-29T06:13:09;11.10;99.90
25024;DHT22;13033;50.936;5.334;2023-12-29T06:15:35;11.10;99.90
25024;DHT22;13033;50.936;5.334;2023-12-29T06:18:02;11.00;99.90
25024;DHT22;13033;50.936;5.334;2023-12-29T06:20:28;11.10;99.90
25024;DHT22;13033;50.936;5.334;2023-12-29T06:22:54;11.10;99.90
25024;DHT22;13033;50.936;5.334;2023-12-29T06:25:21;11.10;99.90
25024;DHT22;13033;50.936;5.334;2023-12-29T06:27:49;11.10;99.90
25024;DHT22;13033;50.936;5.334;2023-12-29T06:30:15;11.10;99.90
25024;DHT22;13033;50.936;5.334;2023-12-29T06:32:41;11.10;99.90
25024;DHT22;13033;50.936;5.334;2023-12-29T06:35:09;11.10;99.90
25024;DHT22;13033;50.936;5.334;2023-12-29T06:37:38;11.10;99.90
25024;DHT22;13033;50.936;5.334;2023-12-29T06:40:08;11.10;99.90
25024;DHT22;13033;50.936;5.334;2023-12-29T06:42:35;11.10;99.90
25024;DHT22;13033;50.936;5.334;2023-12-29T06:45:02;11.10;99.90
25024;DHT22;13033;50.936;5.334;2023-12-29T06:47:28;11.10;99.90
25024;DHT22;13033;50.936;5.334;2023-12-29T06:49:55;11.00;99.90
25024;DHT22;13033;50.936;5.334;2023-12-29T06:52:22;10.80;99.90
25024;DHT22;13033;50.936;5.334;2023-12-29T06:54:54;10.70;99.90
25024;DHT22;13033;50.936;5.334;2023-12-29T06:57:21;10.70;99.90
25024;DHT22;13033;50.936;5.334;2023-12-29T06:59:46;10.60;99.90
25024;DHT22;13033;50.936;5.334;2023-12-29T07:02:12;10.60;99.90
25024;DHT22;13033;50.936;5.334;2023-12-29T07:04:41;10.50;99.90
25024;DHT22;13033;50.936;5.334;2023-12-29T07:07:15;10.50;99.90
25024;DHT22;13033;50.936;5.334;2023-12-29T07:09:40;10.40;99.90
25024;DHT22;13033;50.936;5.334;2023-12-29T07:12:07;10.20;99.90
25024;DHT22;13033;50.936;5.334;2023-12-29T07:14:35;10.10;99.90
25024;DHT22;13033;50.936;5.334;2023-12-29T07:17:01;10.20;99.90
25024;DHT22;13033;50.936;5.334;2023-12-29T07:19:28;10.20;99.90
25024;DHT22;13033;50.936;5.334;2023-12-29T07:22:03;10.10;99.90
25024;DHT22;13033;50.936;5.334;2023-12-29T07:24:29;10.10;99.90
25024;DHT22;13033;50.936;5.334;2023-12-29T07:26:54;10.10;99.90
25024;DHT22;13033;50.936;5.334;2023-12-29T07:29:21;10.00;99.90
25024;DHT22;13033;50.936;5.334;2023-12-29T07:31:46;10.00;99.90
25024;DHT22;13033;50.936;5.334;2023-12-29T07:34:15;9.90;99.90
25024;DHT22;13033;50.936;5.334;2023-12-29T07:36:40;9.90;99.90
25024;DHT22;13033;50.936;5.334;2023-12-29T07:39:11;9.90;99.90
25024;DHT22;13033;50.936;5.334;2023-12-29T07:41:43;9.90;99.90
25024;DHT22;13033;50.936;5.334;2023-12-29T07:44:12;9.80;99.90
25024;DHT22;13033;50.936;5.334;2023-12-29T07:46:40;9.90;99.90
25024;DHT22;13033;50.936;5.334;2023-12-29T07:49:06;9.90;99.90
25024;DHT22;13033;50.936;5.334;2023-12-29T07:51:31;10.00;99.90
25024;DHT22;13033;50.936;5.334;2023-12-29T07:53:57;10.00;99.90
25024;DHT22;13033;50.936;5.334;2023-12-29T07:56:23;9.90;99.90
25024;DHT22;13033;50.936;5.334;2023-12-29T07:58:49;10.00;99.90
25024;DHT22;13033;50.936;5.334;2023-12-29T08:01:14;9.90;99.90
25024;DHT22;13033;50.936;5.334;2023-12-29T08:03:40;9.90;99.90
25024;DHT22;13033;50.936;5.334;2023-12-29T08:06:06;10.00;99.90
25024;DHT22;13033;50.936;5.334;2023-12-29T08:08:32;10.00;99.90
25024;DHT22;13033;50.936;5.334;2023-12-29T08:10:57;9.90;99.90
25024;DHT22;13033;50.936;5.334;2023-12-29T08:13:23;9.90;99.90
25024;DHT22;13033;50.936;5.334;2023-12-29T08:15:49;10.00;99.90
25024;DHT22;13033;50.936;5.334;2023-12-29T08:18:14;10.10;99.90
25024;DHT22;13033;50.936;5.334;2023-12-29T08:20:40;10.10;99.90
25024;DHT22;13033;50.936;5.334;2023-12-29T08:23:06;10.10;99.90
25024;DHT22;13033;50.936;5.334;2023-12-29T08:25:33;10.10;99.90
25024;DHT22;13033;50.936;5.334;2023-12-29T08:27:59;10.10;99.90
25024;DHT22;13033;50.936;5.334;2023-12-29T08:30:24;10.20;99.90
25024;DHT22;13033;50.936;5.334;2023-12-29T08:32:50;10.20;99.90
25024;DHT22;13033;50.936;5.334;2023-12-29T08:35:15;10.30;99.90
25024;DHT22;13033;50.936;5.334;2023-12-29T08:37:41;10.30;99.90
25024;DHT22;13033;50.936;5.334;2023-12-29T08:40:07;10.20;99.90
25024;DHT22;13033;50.936;5.334;2023-12-29T08:42:33;10.20;99.90
25024;DHT22;13033;50.936;5.334;2023-12-29T08:45:01;10.20;99.90
25024;DHT22;13033;50.936;5.334;2023-12-29T08:47:29;10.20;99.90
25024;DHT22;13033;50.936;5.334;2023-12-29T08:49:55;10.20;99.90
25024;DHT22;13033;50.936;5.334;2023-12-29T08:52:20;10.20;99.90
25024;DHT22;13033;50.936;5.334;2023-12-29T08:54:46;10.30;99.90
25024;DHT22;13033;50.936;5.334;2023-12-29T08:57:14;10.30;99.90
25024;DHT22;13033;50.936;5.334;2023-12-29T08:59:40;10.40;99.90
25024;DHT22;13033;50.936;5.334;2023-12-29T09:02:05;10.30;99.90
25024;DHT22;13033;50.936;5.334;2023-12-29T09:04:32;10.30;99.90
25024;DHT22;13033;50.936;5.334;2023-12-29T09:06:58;10.30;99.90
25024;DHT22;13033;50.936;5.334;2023-12-29T09:09:24;10.40;99.90
25024;DHT22;13033;50.936;5.334;2023-12-29T09:11:50;10.50;99.90
25024;DHT22;13033;50.936;5.334;2023-12-29T09:14:16;10.50;99.90
25024;DHT22;13033;50.936;5.334;2023-12-29T09:16:42;10.50;99.90
25024;DHT22;13033;50.936;5.334;2023-12-29T09:19:08;10.50;99.90
25024;DHT22;13033;50.936;5.334;2023-12-29T09:21:34;10.50;99.90
25024;DHT22;13033;50.936;5.334;2023-12-29T09:23:59;10.50;99.90
25024;DHT22;13033;50.936;5.334;2023-12-29T09:26:26;10.60;99.90
25024;DHT22;13033;50.936;5.334;2023-12-29T09:28:52;10.60;99.90
25024;DHT22;13033;50.936;5.334;2023-12-29T09:31:18;10.70;99.90
25024;DHT22;13033;50.936;5.334;2023-12-29T09:33:43;10.70;99.90
25024;DHT22;13033;50.936;5.334;2023-12-29T09:36:09;10.80;99.90
25024;DHT22;13033;50.936;5.334;2023-12-29T09:38:35;10.80;99.90
25024;DHT22;13033;50.936;5.334;2023-12-29T09:41:05;10.70;99.90
25024;DHT22;13033;50.936;5.334;2023-12-29T09:43:36;10.80;99.90
25024;DHT22;13033;50.936;5.334;2023-12-29T09:46:10;10.80;99.90
25024;DHT22;13033;50.936;5.334;2023-12-29T09:48:37;10.80;99.90
25024;DHT22;13033;50.936;5.334;2023-12-29T09:51:07;10.80;99.90
25024;DHT22;13033;50.936;5.334;2023-12-29T09:53:36;10.70;99.90
25024;DHT22;13033;50.936;5.334;2023-12-29T09:56:04;10.70;99.90
25024;DHT22;13033;50.936;5.334;2023-12-29T09:58:31;10.80;99.90
25024;DHT22;13033;50.936;5.334;2023-12-29T10:00:57;10.80;99.90
25024;DHT22;13033;50.936;5.334;2023-12-29T10:03:23;10.80;99.90
25024;DHT22;13033;50.936;5.334;2023-12-29T10:05:51;10.80;99.90
25024;DHT22;13033;50.936;5.334;2023-12-29T10:08:22;10.90;99.90
25024;DHT22;13033;50.936;5.334;2023-12-29T10:10:49;10.80;99.90
25024;DHT22;13033;50.936;5.334;2023-12-29T10:13:17;10.70;99.90
25024;DHT22;13033;50.936;5.334;2023-12-29T10:19:50;10.90;99.90
25024;DHT22;13033;50.936;5.334;2023-12-29T10:22:15;10.90;99.90
25024;DHT22;13033;50.936;5.334;2023-12-29T10:24:44;10.90;99.90
25024;DHT22;13033;50.936;5.334;2023-12-29T10:27:12;10.90;99.90
25024;DHT22;13033;50.936;5.334;2023-12-29T10:29:39;10.90;99.90
25024;DHT22;13033;50.936;5.334;2023-12-29T10:32:06;11.10;99.90
25024;DHT22;13033;50.936;5.334;2023-12-29T10:34:32;11.10;99.90
25024;DHT22;13033;50.936;5.334;2023-12-29T10:37:02;11.10;99.90
25024;DHT22;13033;50.936;5.334;2023-12-29T10:39:36;11.10;99.90
25024;DHT22;13033;50.936;5.334;2023-12-29T10:42:06;11.20;99.90
25024;DHT22;13033;50.936;5.334;2023-12-29T10:44:36;11.10;99.90
25024;DHT22;13033;50.936;5.334;2023-12-29T10:47:09;11.20;99.90
25024;DHT22;13033;50.936;5.334;2023-12-29T10:49:35;11.20;99.90
25024;DHT22;13033;50.936;5.334;2023-12-29T10:52:13;11.10;99.90
25024;DHT22;13033;50.936;5.334;2023-12-29T10:54:40;11.00;99.90
25024;DHT22;13033;50.936;5.334;2023-12-29T10:57:12;11.00;99.90
25024;DHT22;13033;50.936;5.334;2023-12-29T10:59:40;10.90;99.90
25024;DHT22;13033;50.936;5.334;2023-12-29T11:02:06;10.90;99.90
25024;DHT22;13033;50.936;5.334;2023-12-29T11:04:34;11.00;99.90
25024;DHT22;13033;50.936;5.334;2023-12-29T11:07:00;11.00;99.90
25024;DHT22;13033;50.936;5.334;2023-12-29T11:09:31;11.00;99.90
25024;DHT22;13033;50.936;5.334;2023-12-29T11:12:03;10.90;99.90
25024;DHT22;13033;50.936;5.334;2023-12-29T11:14:30;11.00;99.90
25024;DHT22;13033;50.936;5.334;2023-12-29T11:16:57;11.10;99.90
25024;DHT22;13033;50.936;5.334;2023-12-29T11:19:24;11.10;99.90
25024;DHT22;13033;50.936;5.334;2023-12-29T11:21:52;11.10;99.90
25024;DHT22;13033;50.936;5.334;2023-12-29T11:24:20;11.10;99.90
25024;DHT22;13033;50.936;5.334;2023-12-29T11:26:45;11.10;99.90
25024;DHT22;13033;50.936;5.334;2023-12-29T11:29:12;11.30;99.90
25024;DHT22;13033;50.936;5.334;2023-12-29T11:31:40;11.20;99.90
25024;DHT22;13033;50.936;5.334;2023-12-29T11:34:34;11.20;99.90
25024;DHT22;13033;50.936;5.334;2023-12-29T11:37:33;11.10;99.90
25024;DHT22;13033;50.936;5.334;2023-12-29T11:42:40;11.10;99.90
25024;DHT22;13033;50.936;5.334;2023-12-29T11:45:28;11.10;99.90
25024;DHT22;13033;50.936;5.334;2023-12-29T11:47:54;11.20;99.90
25024;DHT22;13033;50.936;5.334;2023-12-29T11:50:38;11.20;99.90
25024;DHT22;13033;50.936;5.334;2023-12-29T11:53:07;11.10;99.90
25024;DHT22;13033;50.936;5.334;2023-12-29T11:55:38;11.20;99.90
25024;DHT22;13033;50.936;5.334;2023-12-29T11:58:26;11.20;99.90
25024;DHT22;13033;50.936;5.334;2023-12-29T12:00:53;11.20;99.90
25024;DHT22;13033;50.936;5.334;2023-12-29T12:03:25;11.20;99.90
25024;DHT22;13033;50.936;5.334;2023-12-29T12:05:51;11.30;99.90
25024;DHT22;13033;50.936;5.334;2023-12-29T12:08:44;11.30;99.90
25024;DHT22;13033;50.936;5.334;2023-12-29T12:13:54;11.40;99.90
25024;DHT22;13033;50.936;5.334;2023-12-29T12:19:11;11.50;99.90
25024;DHT22;13033;50.936;5.334;2023-12-29T12:21:37;11.50;99.90
25024;DHT22;13033;50.936;5.334;2023-12-29T12:24:07;11.60;99.90
25024;DHT22;13033;50.936;5.334;2023-12-29T12:26:34;11.60;99.90
25024;DHT22;13033;50.936;5.334;2023-12-29T12:29:00;11.50;99.90
25024;DHT22;13033;50.936;5.334;2023-12-29T12:31:26;11.50;99.90
25024;DHT22;13033;50.936;5.334;2023-12-29T12:33:59;11.50;99.90
25024;DHT22;13033;50.936;5.334;2023-12-29T12:36:28;11.40;99.90
25024;DHT22;13033;50.936;5.334;2023-12-29T12:38:55;11.40;99.90
25024;DHT22;13033;50.936;5.334;2023-12-29T12:41:25;11.30;99.90
25024;DHT22;13033;50.936;5.334;2023-12-29T12:46:34;11.40;99.90
25024;DHT22;13033;50.936;5.334;2023-12-29T12:49:02;11.30;99.90
25024;DHT22;13033;50.936;5.334;2023-12-29T12:51:31;11.30;99.90
25024;DHT22;13033;50.936;5.334;2023-12-29T12:53:58;11.20;99.90
25024;DHT22;13033;50.936;5.334;2023-12-29T12:56:26;11.20;99.90
25024;DHT22;13033;50.936;5.334;2023-12-29T12:58:57;11.20;99.90
25024;DHT22;13033;50.936;5.334;2023-12-29T13:01:23;11.10;99.90
25024;DHT22;13033;50.936;5.334;2023-12-29T13:03:51;11.20;99.90
25024;DHT22;13033;50.936;5.334;2023-12-29T13:06:18;11.10;99.90
25024;DHT22;13033;50.936;5.334;2023-12-29T13:08:51;11.10;99.90
25024;DHT22;13033;50.936;5.334;2023-12-29T13:11:21;11.10;99.90
25024;DHT22;13033;50.936;5.334;2023-12-29T13:13:51;11.00;99.90
25024;DHT22;13033;50.936;5.334;2023-12-29T13:16:38;10.90;99.90
25024;DHT22;13033;50.936;5.334;2023-12-29T13:19:20;11.00;99.90
25024;DHT22;13033;50.936;5.334;2023-12-29T13:21:47;10.90;99.90
25024;DHT22;13033;50.936;5.334;2023-12-29T13:24:13;10.90;99.90
25024;DHT22;13033;50.936;5.334;2023-12-29T13:26:41;10.90;99.90
25024;DHT22;13033;50.936;5.334;2023-12-29T13:29:08;10.90;99.90
25024;DHT22;13033;50.936;5.334;2023-12-29T13:31:34;10.80;99.90
25024;DHT22;13033;50.936;5.334;2023-12-29T13:34:12;10.80;99.90
25024;DHT22;13033;50.936;5.334;2023-12-29T13:37:23;10.80;99.90
25024;DHT22;13033;50.936;5.334;2023-12-29T13:40:03;10.80;99.90
25024;DHT22;13033;50.936;5.334;2023-12-29T13:42:34;10.80;99.90
25024;DHT22;13033;50.936;5.334;2023-12-29T13:45:00;10.80;99.90
25024;DHT22;13033;50.936;5.334;2023-12-29T13:47:29;10.90;99.90
25024;DHT22;13033;50.936;5.334;2023-12-29T13:49:55;10.90;99.90
25024;DHT22;13033;50.936;5.334;2023-12-29T13:52:21;10.90;99.90
25024;DHT22;13033;50.936;5.334;2023-12-29T13:54:46;10.80;99.90
25024;DHT22;13033;50.936;5.334;2023-12-29T13:57:12;10.90;99.90
25024;DHT22;13033;50.936;5.334;2023-12-29T13:59:38;10.90;99.90
25024;DHT22;13033;50.936;5.334;2023-12-29T14:02:20;11.00;99.90
25024;DHT22;13033;50.936;5.334;2023-12-29T14:04:48;10.90;99.90
25024;DHT22;13033;50.936;5.334;2023-12-29T14:07:14;10.80;99.90
25024;DHT22;13033;50.936;5.334;2023-12-29T14:09:44;10.90;99.90
25024;DHT22;13033;50.936;5.334;2023-12-29T14:12:11;10.90;99.90
25024;DHT22;13033;50.936;5.334;2023-12-29T14:14:36;11.10;99.90
25024;DHT22;13033;50.936;5.334;2023-12-29T14:17:02;11.10;99.90
25024;DHT22;13033;50.936;5.334;2023-12-29T14:19:34;11.10;99.90
25024;DHT22;13033;50.936;5.334;2023-12-29T14:22:01;11.10;99.90
25024;DHT22;13033;50.936;5.334;2023-12-29T14:24:27;11.10;99.90
25024;DHT22;13033;50.936;5.334;2023-12-29T14:29:19;11.10;99.90
25024;DHT22;13033;50.936;5.334;2023-12-29T14:31:46;11.10;99.90
25024;DHT22;13033;50.936;5.334;2023-12-29T14:34:13;11.10;99.90
25024;DHT22;13033;50.936;5.334;2023-12-29T14:36:41;11.10;99.90
25024;DHT22;13033;50.936;5.334;2023-12-29T14:39:07;11.00;99.90
25024;DHT22;13033;50.936;5.334;2023-12-29T14:41:35;11.00;99.90
25024;DHT22;13033;50.936;5.334;2023-12-29T14:44:01;11.10;99.90
25024;DHT22;13033;50.936;5.334;2023-12-29T14:46:27;11.10;99.90
25024;DHT22;13033;50.936;5.334;2023-12-29T14:48:54;11.10;99.90
25024;DHT22;13033;50.936;5.334;2023-12-29T14:51:20;11.10;99.90
25024;DHT22;13033;50.936;5.334;2023-12-29T14:53:50;11.00;99.90
25024;DHT22;13033;50.936;5.334;2023-12-29T14:56:17;10.90;99.90
25024;DHT22;13033;50.936;5.334;2023-12-29T14:58:43;10.90;99.90
25024;DHT22;13033;50.936;5.334;2023-12-29T15:01:10;10.90;99.90
25024;DHT22;13033;50.936;5.334;2023-12-29T15:03:36;11.00;99.90
25024;DHT22;13033;50.936;5.334;2023-12-29T15:06:02;10.90;99.90
25024;DHT22;13033;50.936;5.334;2023-12-29T15:08:29;10.80;99.90
25024;DHT22;13033;50.936;5.334;2023-12-29T15:11:04;10.80;99.90
25024;DHT22;13033;50.936;5.334;2023-12-29T15:13:30;10.80;99.90
25024;DHT22;13033;50.936;5.334;2023-12-29T15:16:00;10.80;99.90
25024;DHT22;13033;50.936;5.334;2023-12-29T15:18:26;10.80;99.90
25024;DHT22;13033;50.936;5.334;2023-12-29T15:20:53;10.80;99.90
25024;DHT22;13033;50.936;5.334;2023-12-29T15:23:19;10.90;99.90
25024;DHT22;13033;50.936;5.334;2023-12-29T15:25:50;10.90;99.90
25024;DHT22;13033;50.936;5.334;2023-12-29T15:28:16;10.90;99.90
25024;DHT22;13033;50.936;5.334;2023-12-29T15:30:45;10.80;99.90
25024;DHT22;13033;50.936;5.334;2023-12-29T15:33:11;10.80;99.90
25024;DHT22;13033;50.936;5.334;2023-12-29T15:35:38;10.80;99.90
25024;DHT22;13033;50.936;5.334;2023-12-29T15:38:04;10.80;99.90
25024;DHT22;13033;50.936;5.334;2023-12-29T15:40:31;10.80;99.90
25024;DHT22;13033;50.936;5.334;2023-12-29T15:42:57;10.80;99.90
25024;DHT22;13033;50.936;5.334;2023-12-29T15:45:23;10.80;99.90
25024;DHT22;13033;50.936;5.334;2023-12-29T15:47:49;10.80;99.90
25024;DHT22;13033;50.936;5.334;2023-12-29T15:50:15;10.80;99.90
25024;DHT22;13033;50.936;5.334;2023-12-29T15:52:40;10.80;99.90
25024;DHT22;13033;50.936;5.334;2023-12-29T15:55:07;10.80;99.90
25024;DHT22;13033;50.936;5.334;2023-12-29T15:57:33;10.90;99.90
25024;DHT22;13033;50.936;5.334;2023-12-29T15:59:58;10.90;99.90